Time;durP1;ratioP1;P1;durP2;ratioP2;P2;SDS_P1;SDS_P2;PMS_P1;PMS_P2;Temp;Humidity;BMP_temperature;BMP_pressure;BME280_temperature;BME280_humidity;BME280_pressure;Samples;Min_cycle;Max_cycle;Signal;HPM_P1;HPM_P2
2022/12/16 00:01:19;;;;;;;;;29.75;28.75;;;;;2.95;52.35;100325.63;5065316;27;45482;-52
2022/12/16 00:03:49;;;;;;;;;33.50;27.50;;;;;2.94;52.63;100335.97;5088016;27;45536;-54
2022/12/16 00:06:15;;;;;;;;;44.00;32.25;;;;;2.92;52.44;100337.72;5087537;27;45493;-55
2022/12/16 00:08:40;;;;;;;;;33.75;29.25;;;;;2.88;52.25;100329.09;5066317;27;45912;-54
2022/12/16 00:11:07;;;;;;;;;39.25;29.00;;;;;2.88;52.41;100334.28;5064803;27;61493;-54
2022/12/16 00:13:33;;;;;;;;;43.50;31.50;;;;;2.89;52.55;100340.31;5089787;27;45634;-55
2022/12/16 00:16:04;;;;;;;;;35.75;28.25;;;;;2.89;52.67;100336.00;5063332;28;45525;-54
2022/12/16 00:18:29;;;;;;;;;41.75;29.50;;;;;2.87;52.82;100339.44;5072569;28;45503;-55
2022/12/16 00:20:54;;;;;;;;;41.75;30.25;;;;;2.84;52.80;100350.66;5064271;27;49567;-55
2022/12/16 00:23:20;;;;;;;;;41.50;34.00;;;;;2.81;52.96;100348.91;5069935;27;45737;-55
2022/12/16 00:25:46;;;;;;;;;31.00;27.00;;;;;2.82;53.13;100352.38;5066553;28;45503;-53
2022/12/16 00:28:13;;;;;;;;;41.50;32.25;;;;;2.80;52.80;100357.56;5072762;27;46556;-54
2022/12/16 00:30:41;;;;;;;;;35.00;28.25;;;;;2.77;52.73;100356.69;5066268;27;45438;-52
2022/12/16 00:33:06;;;;;;;;;41.75;30.75;;;;;2.75;53.16;100366.19;5070627;28;45425;-52
2022/12/16 00:35:31;;;;;;;;;39.00;35.25;;;;;2.73;53.38;100362.75;5066896;28;45324;-53
2022/12/16 00:37:57;;;;;;;;;28.75;23.75;;;;;2.74;53.07;100361.88;5073050;27;45886;-53
2022/12/16 00:40:23;;;;;;;;;31.50;28.25;;;;;2.77;52.83;100372.19;5070373;27;68211;-53
2022/12/16 00:42:48;;;;;;;;;39.50;29.00;;;;;2.79;52.84;100370.47;5062428;27;59252;-52
2022/12/16 00:45:13;;;;;;;;;41.00;36.75;;;;;2.80;52.96;100365.31;5069576;28;45424;-50
2022/12/16 00:47:39;;;;;;;;;43.50;31.75;;;;;2.82;53.02;100365.31;5062351;28;57622;-55
2022/12/16 00:50:05;;;;;;;;;43.25;31.75;;;;;2.85;52.79;100367.88;5065216;27;45471;-51
2022/12/16 00:52:30;;;;;;;;;41.00;35.00;;;;;2.85;52.77;100362.69;5063460;27;45841;-53
2022/12/16 00:54:55;;;;;;;;;39.00;34.67;;;;;2.88;52.90;100367.88;5069279;27;66796;-53
2022/12/16 00:57:21;;;;;;;;;48.25;35.00;;;;;2.88;52.92;100367.88;5064569;27;62924;-54
2022/12/16 00:59:47;;;;;;;;;37.50;31.75;;;;;2.91;52.74;100375.63;5079088;27;45303;-54
2022/12/16 01:02:12;;;;;;;;;38.25;31.25;;;;;2.92;52.83;100374.78;5066421;27;61151;-51
2022/12/16 01:04:37;;;;;;;;;38.25;33.25;;;;;2.92;52.72;100379.94;5072660;27;59679;-51
2022/12/16 01:07:03;;;;;;;;;50.50;40.50;;;;;2.97;52.94;100379.91;5064841;27;69415;-52
2022/12/16 01:09:28;;;;;;;;;50.00;36.75;;;;;2.97;52.82;100382.50;5074288;27;45463;-54
2022/12/16 01:11:53;;;;;;;;;36.33;31.00;;;;;2.96;53.04;100383.38;5072795;27;63440;-54
2022/12/16 01:14:19;;;;;;;;;55.50;37.50;;;;;2.94;52.84;100390.25;5071613;27;67209;-55
2022/12/16 01:16:44;;;;;;;;;41.50;32.50;;;;;2.90;52.99;100380.78;5065811;27;48510;-54
2022/12/16 01:19:10;;;;;;;;;46.25;33.00;;;;;2.87;52.90;100391.13;5069998;27;45330;-54
2022/12/16 01:21:36;;;;;;;;;39.25;31.00;;;;;2.83;53.07;100392.84;5063847;27;62871;-53
2022/12/16 01:24:01;;;;;;;;;43.50;30.25;;;;;2.84;53.39;100399.75;5077500;27;45266;-54
2022/12/16 01:26:26;;;;;;;;;44.00;31.50;;;;;2.83;53.29;100393.75;5078454;27;61864;-59
2022/12/16 01:28:52;;;;;;;;;42.25;35.50;;;;;2.85;53.03;100410.09;5076551;27;59788;-55
2022/12/16 01:31:18;;;;;;;;;45.00;32.25;;;;;2.87;53.34;100407.50;5079831;27;45324;-55
2022/12/16 01:33:44;;;;;;;;;37.75;33.75;;;;;2.88;53.06;100405.78;5092985;27;45305;-55
2022/12/16 01:36:09;;;;;;;;;47.75;35.50;;;;;2.88;53.25;100419.56;5079748;27;45355;-51
2022/12/16 01:38:35;;;;;;;;;48.25;31.25;;;;;2.89;53.31;100417.84;5079558;27;45211;-54
2022/12/16 01:41:01;;;;;;;;;43.75;32.00;;;;;2.91;53.05;100422.16;5074370;27;45465;-55
2022/12/16 01:43:29;;;;;;;;;50.25;33.50;;;;;2.94;53.39;100429.03;5073532;27;45581;-54
2022/12/16 01:46:12;;;;;;;;;40.50;30.00;;;;;2.92;53.32;100435.91;5071175;27;46189;-55
2022/12/16 01:48:38;;;;;;;;;42.25;37.00;;;;;2.87;53.52;100438.53;5055422;28;45466;-53
2022/12/16 01:51:26;;;;;;;;;40.50;29.75;;;;;2.86;53.62;100436.78;5068301;27;45245;-55
2022/12/16 01:53:57;;;;;;;;;40.75;31.00;;;;;2.86;53.52;100447.13;5075938;27;45395;-50
2022/12/16 01:56:24;;;;;;;;;40.00;32.50;;;;;2.86;53.58;100447.13;5079495;28;46277;-54
2022/12/16 01:58:50;;;;;;;;;38.25;26.50;;;;;2.84;53.87;100448.84;5080349;27;45307;-55
2022/12/16 02:01:15;;;;;;;;;38.00;29.75;;;;;2.84;54.20;100464.38;5068638;27;46909;-55
2022/12/16 02:03:41;;;;;;;;;40.00;30.75;;;;;2.78;53.85;100456.59;5080787;27;45528;-53
2022/12/16 02:06:06;;;;;;;;;48.50;36.25;;;;;2.75;53.95;100472.13;5078518;27;46459;-51
2022/12/16 02:08:32;;;;;;;;;44.25;36.25;;;;;2.73;54.31;100469.53;5070001;27;45355;-51
2022/12/16 02:11:12;;;;;;;;;45.00;36.00;;;;;2.75;53.98;100465.22;5068604;27;45487;-55
2022/12/16 02:14:00;;;;;;;;;35.00;29.50;;;;;2.77;53.87;100471.25;5067013;28;45516;-51
2022/12/16 02:16:47;;;;;;;;;40.75;34.25;;;;;2.80;53.90;100471.25;5077858;27;45436;-54
2022/12/16 02:19:37;;;;;;;;;40.50;33.75;;;;;2.81;53.90;100462.63;5072265;28;45614;-52
2022/12/16 02:22:26;;;;;;;;;33.00;30.25;;;;;2.82;53.78;100468.69;5068642;28;45504;-55
2022/12/16 02:25:13;;;;;;;;;45.00;32.00;;;;;2.83;54.18;100468.69;5085586;27;45418;-53
2022/12/16 02:28:10;;;;;;;;;31.75;29.75;;;;;2.87;54.26;100474.72;5069361;27;45441;-53
2022/12/16 02:30:47;;;;;;;;;40.75;33.25;;;;;2.88;54.20;100475.56;5075723;27;45484;-51
2022/12/16 02:33:18;;;;;;;;;49.75;35.50;;;;;2.89;54.30;100467.81;5078741;27;45530;-53
2022/12/16 02:35:51;;;;;;;;;45.25;32.75;;;;;2.91;54.02;100465.22;5074763;28;45539;-54
2022/12/16 02:38:32;;;;;;;;;49.50;33.50;;;;;2.95;54.04;100472.97;5071450;27;45654;-55
2022/12/16 02:41:01;;;;;;;;;48.75;35.75;;;;;2.96;54.20;100466.94;5070774;27;45585;-54
2022/12/16 02:43:49;;;;;;;;;52.75;37.50;;;;;2.98;53.91;100464.38;5069269;27;45386;-54
2022/12/16 02:46:16;;;;;;;;;34.50;28.50;;;;;2.97;54.20;100468.66;5067460;27;45519;-53
2022/12/16 02:48:41;;;;;;;;;42.50;31.50;;;;;2.96;54.26;100472.13;5070812;27;47151;-53
2022/12/16 02:51:07;;;;;;;;;54.00;36.25;;;;;2.98;54.17;100472.97;5072605;27;45623;-54
2022/12/16 02:53:34;;;;;;;;;23.75;8.25;;;;;2.98;54.08;100475.56;5058999;28;60339;-54
2022/12/16 02:56:06;;;;;;;;;43.75;36.00;;;;;2.96;54.36;100473.84;5076594;27;45417;-54
2022/12/16 02:58:49;;;;;;;;;40.00;37.25;;;;;2.93;54.46;100477.28;5078027;27;45787;-49
2022/12/16 03:01:32;;;;;;;;;43.75;36.00;;;;;2.95;54.27;100479.88;5074562;27;46254;-55
2022/12/16 03:04:04;;;;;;;;;42.00;32.50;;;;;2.96;54.26;100481.59;5083538;27;45468;-56
2022/12/16 03:06:32;;;;;;;;;37.75;33.75;;;;;2.97;54.28;100483.31;5071285;28;45384;-54
2022/12/16 03:08:59;;;;;;;;;48.75;38.25;;;;;3.01;54.26;100487.59;5090957;27;45390;-54
2022/12/16 03:11:27;;;;;;;;;52.00;38.25;;;;;3.01;54.35;100487.59;5078282;28;45463;-53
2022/12/16 03:13:54;;;;;;;;;56.50;37.00;;;;;3.01;54.69;100485.03;5076112;27;45461;-53
2022/12/16 03:16:22;;;;;;;;;44.50;36.25;;;;;3.01;54.35;100485.91;5075393;28;45370;-50
2022/12/16 03:18:52;;;;;;;;;46.25;37.25;;;;;3.03;54.31;100489.34;5064003;27;45506;-52
2022/12/16 03:21:20;;;;;;;;;44.75;34.00;;;;;3.02;54.25;100485.03;5086786;27;45753;-50
2022/12/16 03:23:50;;;;;;;;;51.00;38.00;;;;;3.08;54.15;100489.38;5089979;27;45527;-50
2022/12/16 03:26:21;;;;;;;;;44.50;31.75;;;;;3.08;54.17;100491.94;5078249;28;45447;-51
2022/12/16 03:29:00;;;;;;;;;36.00;34.00;;;;;3.11;53.98;100488.47;5076054;27;46341;-49
2022/12/16 03:31:29;;;;;;;;;42.00;34.50;;;;;3.12;54.33;100491.06;5072764;28;45939;-53
2022/12/16 03:34:11;;;;;;;;;48.00;36.75;;;;;3.10;53.82;100490.22;5094013;27;45484;-52
2022/12/16 03:36:38;;;;;;;;;50.50;38.00;;;;;3.07;54.22;100492.78;5076145;27;45453;-53
2022/12/16 03:39:04;;;;;;;;;36.50;33.00;;;;;3.07;54.38;100500.56;5087198;27;46956;-52
2022/12/16 03:41:30;;;;;;;;;43.50;35.00;;;;;3.06;54.22;100500.53;5068259;28;45545;-50
2022/12/16 03:43:56;;;;;;;;;41.00;31.25;;;;;3.04;54.07;100513.47;5075471;28;59289;-52
2022/12/16 03:46:21;;;;;;;;;39.75;31.25;;;;;3.06;53.89;100508.31;5070567;27;45315;-55
2022/12/16 03:48:49;;;;;;;;;44.00;38.00;;;;;3.07;54.24;100505.72;5077959;27;72112;-54
2022/12/16 03:51:14;;;;;;;;;39.25;31.75;;;;;3.08;54.01;100504.00;5059076;28;45358;-55
2022/12/16 03:53:40;;;;;;;;;47.00;36.00;;;;;3.09;54.16;100510.91;5067138;28;45475;-54
2022/12/16 03:56:05;;;;;;;;;46.50;32.00;;;;;3.12;54.17;100510.91;5072165;27;46037;-54
2022/12/16 03:58:32;;;;;;;;;43.50;35.75;;;;;3.11;54.08;100510.03;5076341;27;47242;-55
2022/12/16 04:00:58;;;;;;;;;38.50;33.25;;;;;3.14;53.97;100512.63;5073409;27;45909;-52
2022/12/16 04:03:24;;;;;;;;;50.50;37.75;;;;;3.11;54.24;100515.19;5077066;27;45432;-54
2022/12/16 04:05:49;;;;;;;;;38.75;33.75;;;;;3.07;54.21;100520.38;5087757;27;45544;-53
2022/12/16 04:08:15;;;;;;;;;40.25;31.25;;;;;3.03;53.97;100515.19;5070280;28;65553;-51
2022/12/16 04:24:29;;;;;;;;;49.75;31.75;;;;;3.00;54.30;100537.59;5063595;28;45267;-53
2022/12/16 04:30:17;;;;;;;;;43.00;35.00;;;;;2.90;54.33;100541.88;5086944;27;45720;-52
2022/12/16 04:32:23;;;;;;;;;53.75;38.75;;;;;2.91;54.39;100550.53;5079141;27;45279;-54
2022/12/16 04:34:50;;;;;;;;;34.00;26.50;;;;;2.90;54.36;100548.78;5088548;27;45226;-54
